Time;durP1;ratioP1;P1;durP2;ratioP2;P2;SDS_P1;SDS_P2;PMS_P1;PMS_P2;Temp;Humidity;BMP_temperature;BMP_pressure;BME280_temperature;BME280_humidity;BME280_pressure;Samples;Min_cycle;Max_cycle;Signal;HPM_P1;HPM_P2
2021/09/05 00:01:55;;;;;;;6.88;4.30;;;20.30;62.50;;;;;;4975391;28;20463;-78
2021/09/05 00:04:21;;;;;;;6.70;4.15;;;20.30;62.60;;;;;;4942253;28;20382;-78
2021/09/05 00:06:46;;;;;;;6.20;4.47;;;20.30;62.60;;;;;;4927149;28;20035;-78
2021/09/05 00:09:12;;;;;;;5.80;4.05;;;20.30;62.60;;;;;;4958429;28;20034;-78
2021/09/05 00:11:38;;;;;;;6.70;4.40;;;20.20;62.50;;;;;;4958116;28;20031;-77
2021/09/05 00:14:04;;;;;;;6.28;4.43;;;20.20;62.60;;;;;;4959051;28;20038;-78
2021/09/05 00:16:30;;;;;;;6.60;4.82;;;20.20;62.60;;;;;;4958214;28;20092;-79
2021/09/05 00:19:00;;;;;;;5.70;3.60;;;20.20;62.60;;;;;;4943066;28;20102;-78
2021/09/05 00:21:25;;;;;;;6.65;4.32;;;20.20;62.70;;;;;;4957774;28;20077;-78
2021/09/05 00:23:51;;;;;;;6.20;4.10;;;20.20;62.70;;;;;;4958062;28;20061;-78
2021/09/05 00:26:17;;;;;;;6.30;3.75;;;20.10;62.70;;;;;;4942235;28;20093;-78
2021/09/05 00:28:44;;;;;;;5.63;3.95;;;20.10;62.70;;;;;;4926550;28;20035;-78
2021/09/05 00:31:09;;;;;;;5.68;4.18;;;20.10;62.70;;;;;;4957689;28;20390;-78
2021/09/05 00:33:35;;;;;;;6.40;3.85;;;20.10;62.70;;;;;;4941996;28;20153;-79
2021/09/05 00:36:04;;;;;;;5.90;4.40;;;20.10;62.80;;;;;;4963954;28;20035;-79
2021/09/05 00:38:30;;;;;;;6.93;4.28;;;20.10;62.80;;;;;;4935247;28;20041;-77
2021/09/05 00:40:56;;;;;;;5.88;4.05;;;20.00;62.70;;;;;;4926856;28;20502;-78
2021/09/05 00:43:22;;;;;;;6.07;4.32;;;20.00;62.70;;;;;;4941903;28;20035;-78
2021/09/05 00:45:47;;;;;;;6.00;4.43;;;20.00;63.40;;;;;;4940967;28;20034;-78
2021/09/05 00:48:13;;;;;;;6.80;4.50;;;20.00;62.80;;;;;;4973867;28;20441;-78
2021/09/05 00:50:39;;;;;;;5.70;4.22;;;20.00;62.80;;;;;;4942303;28;20133;-79
2021/09/05 00:53:06;;;;;;;6.85;4.10;;;19.90;62.80;;;;;;4926225;28;20034;-78
2021/09/05 00:55:36;;;;;;;6.80;4.40;;;19.90;62.80;;;;;;4926184;28;20089;-78
2021/09/05 00:58:07;;;;;;;6.70;4.68;;;19.90;62.80;;;;;;4942604;28;20043;-78
2021/09/05 01:00:36;;;;;;;7.88;4.47;;;19.90;62.90;;;;;;4958217;28;20058;-79
2021/09/05 01:03:04;;;;;;;7.25;4.50;;;19.90;62.90;;;;;;4941594;28;20038;-77
2021/09/05 01:05:31;;;;;;;7.90;4.90;;;19.90;62.90;;;;;;4941883;28;20069;-78
2021/09/05 01:07:57;;;;;;;7.47;4.70;;;19.80;62.80;;;;;;4943532;28;20036;-78
2021/09/05 01:10:24;;;;;;;7.28;5.10;;;19.80;62.80;;;;;;4944800;28;20034;-77
2021/09/05 01:12:51;;;;;;;6.20;4.50;;;19.80;62.90;;;;;;4959147;28;20034;-78
2021/09/05 01:15:16;;;;;;;6.13;4.47;;;19.80;62.90;;;;;;4962930;28;20026;-78
2021/09/05 01:17:43;;;;;;;6.13;4.28;;;19.80;62.90;;;;;;4959318;28;20364;-78
2021/09/05 01:20:35;;;;;;;6.40;4.53;;;19.80;62.90;;;;;;4919837;28;20043;-78
2021/09/05 01:23:33;;;;;;;5.80;3.97;;;19.80;62.90;;;;;;4938479;28;20073;-78
2021/09/05 01:26:18;;;;;;;6.72;4.30;;;19.70;62.90;;;;;;4946562;28;20053;-78
2021/09/05 01:29:05;;;;;;;5.47;3.72;;;19.70;62.90;;;;;;4974979;28;20050;-77
2021/09/05 01:31:52;;;;;;;5.65;4.07;;;19.70;63.00;;;;;;4946976;28;20089;-78
2021/09/05 01:34:50;;;;;;;7.40;4.85;;;19.60;62.90;;;;;;4948201;28;20062;-77
2021/09/05 01:37:35;;;;;;;6.57;4.37;;;19.60;63.00;;;;;;4946826;28;20049;-78
2021/09/05 01:40:27;;;;;;;6.47;4.43;;;19.60;63.00;;;;;;4934767;28;20043;-80
2021/09/05 01:43:12;;;;;;;6.47;4.20;;;19.50;62.90;;;;;;4960656;28;20101;-77
2021/09/05 01:46:08;;;;;;;7.28;4.32;;;19.50;63.00;;;;;;4958100;28;20039;-77
2021/09/05 01:48:53;;;;;;;6.70;4.43;;;19.50;63.00;;;;;;4947680;28;20085;-78
2021/09/05 01:51:37;;;;;;;6.05;4.15;;;19.50;63.10;;;;;;4947847;28;20532;-77
2021/09/05 01:54:34;;;;;;;7.32;4.30;;;19.50;63.10;;;;;;4947860;28;20121;-77
2021/09/05 01:57:38;;;;;;;6.07;3.95;;;19.50;63.10;;;;;;4924667;29;20040;-77
2021/09/05 02:00:32;;;;;;;6.18;3.90;;;19.40;63.10;;;;;;4921332;29;20036;-77
2021/09/05 02:03:12;;;;;;;6.20;3.55;;;19.40;63.10;;;;;;4950674;28;20046;-77
2021/09/05 02:05:52;;;;;;;6.03;4.07;;;19.40;63.20;;;;;;4932897;28;20086;-77
2021/09/05 02:08:41;;;;;;;6.88;4.38;;;19.40;63.30;;;;;;4961612;28;20533;-77
2021/09/05 02:11:38;;;;;;;6.50;4.20;;;19.30;63.10;;;;;;4937042;28;20031;-77
2021/09/05 02:14:22;;;;;;;7.45;4.35;;;19.30;63.10;;;;;;4963029;28;20046;-78
2021/09/05 02:17:14;;;;;;;7.90;4.75;;;19.30;63.20;;;;;;4963615;28;20454;-78
2021/09/05 02:19:59;;;;;;;6.53;4.18;;;19.30;63.20;;;;;;4962966;28;20093;-77
2021/09/05 02:22:54;;;;;;;5.82;3.60;;;19.20;63.20;;;;;;4960992;28;20041;-78
2021/09/05 02:25:49;;;;;;;6.57;4.18;;;19.30;63.20;;;;;;4936190;28;20039;-77
2021/09/05 02:28:35;;;;;;;5.57;3.72;;;19.20;63.20;;;;;;4946913;28;20047;-78
2021/09/05 02:31:19;;;;;;;6.50;3.95;;;19.20;63.30;;;;;;4962970;28;20102;-77
2021/09/05 02:34:14;;;;;;;6.05;3.78;;;19.20;63.30;;;;;;4947924;28;20476;-78
2021/09/05 02:37:12;;;;;;;6.55;4.10;;;19.20;63.30;;;;;;4948970;28;20596;-78
2021/09/05 02:39:55;;;;;;;5.47;3.55;;;19.10;63.30;;;;;;4959718;28;20117;-77
2021/09/05 02:42:40;;;;;;;5.93;3.83;;;19.10;63.30;;;;;;4959824;28;20038;-77
2021/09/05 02:45:36;;;;;;;6.05;4.18;;;19.10;63.40;;;;;;4967874;28;20105;-77
2021/09/05 02:48:25;;;;;;;5.38;3.30;;;19.00;63.30;;;;;;4947025;28;20142;-77
2021/09/05 02:51:14;;;;;;;5.90;3.50;;;19.00;63.30;;;;;;4962554;28;20130;-78
2021/09/05 02:54:15;;;;;;;6.18;3.67;;;19.00;63.30;;;;;;4937323;28;20593;-77
2021/09/05 02:57:04;;;;;;;6.22;3.80;;;19.00;63.40;;;;;;4949431;28;20035;-77
2021/09/05 02:59:50;;;;;;;5.35;3.22;;;19.00;63.40;;;;;;4956139;28;20038;-77
2021/09/05 03:02:51;;;;;;;5.63;3.67;;;19.00;63.40;;;;;;4937166;28;20400;-78
2021/09/05 03:05:39;;;;;;;5.82;3.97;;;19.00;63.40;;;;;;4944607;28;20074;-77
2021/09/05 03:08:43;;;;;;;5.28;3.25;;;18.90;63.40;;;;;;4963497;28;20121;-78
2021/09/05 03:11:28;;;;;;;4.88;3.30;;;18.90;63.40;;;;;;4962184;28;20027;-77
2021/09/05 03:14:14;;;;;;;6.00;3.75;;;18.90;63.50;;;;;;4933345;28;20061;-77
2021/09/05 03:17:06;;;;;;;5.75;3.63;;;18.90;63.50;;;;;;4950243;28;20086;-77
2021/09/05 03:19:50;;;;;;;5.85;3.80;;;18.80;63.50;;;;;;4962389;28;20045;-77
2021/09/05 03:22:36;;;;;;;5.60;3.75;;;18.80;63.50;;;;;;4961561;28;20053;-77
2021/09/05 03:25:17;;;;;;;5.32;3.53;;;18.80;63.50;;;;;;4945230;28;20043;-77
2021/09/05 03:28:01;;;;;;;6.20;3.95;;;18.80;63.60;;;;;;4948793;28;20054;-78
2021/09/05 03:30:45;;;;;;;7.22;3.95;;;18.80;63.50;;;;;;4931956;28;20039;-77
2021/09/05 03:33:40;;;;;;;5.18;3.75;;;18.80;63.60;;;;;;4954387;28;20046;-77
2021/09/05 03:36:25;;;;;;;6.03;3.80;;;18.70;63.50;;;;;;4962064;28;20058;-77
2021/09/05 03:39:08;;;;;;;5.82;3.70;;;18.70;63.60;;;;;;4959556;28;20052;-77
2021/09/05 03:41:52;;;;;;;5.82;3.97;;;18.70;63.60;;;;;;4961330;28;20167;-77
2021/09/05 03:44:40;;;;;;;5.03;3.45;;;18.60;63.60;;;;;;4962262;28;20039;-77
2021/09/05 03:47:32;;;;;;;6.15;3.95;;;18.60;63.60;;;;;;4962444;28;20046;-78
2021/09/05 03:50:11;;;;;;;5.47;3.75;;;18.60;63.60;;;;;;4960599;28;20027;-78
2021/09/05 03:52:42;;;;;;;5.72;3.80;;;18.60;63.60;;;;;;4942559;28;20046;-77
2021/09/05 03:55:10;;;;;;;5.13;3.50;;;18.60;63.70;;;;;;4942860;28;20037;-77
2021/09/05 03:57:37;;;;;;;5.05;3.55;;;18.60;63.70;;;;;;4942446;28;20037;-78
2021/09/05 04:00:04;;;;;;;6.15;3.70;;;18.60;63.70;;;;;;4942249;28;20058;-77
2021/09/05 04:02:40;;;;;;;5.93;3.60;;;18.60;63.70;;;;;;4944854;28;20039;-77
2021/09/05 04:05:07;;;;;;;6.00;3.60;;;18.50;63.70;;;;;;4926812;28;20074;-78
2021/09/05 04:07:35;;;;;;;5.80;3.75;;;18.50;63.80;;;;;;4942104;28;20510;-78
2021/09/05 04:10:10;;;;;;;6.75;3.78;;;18.50;63.70;;;;;;4942175;28;20034;-77
2021/09/05 04:12:39;;;;;;;5.75;3.30;;;18.50;63.70;;;;;;4943706;28;20536;-78
2021/09/05 04:15:06;;;;;;;5.97;3.90;;;18.50;63.80;;;;;;4942086;28;20045;-78
2021/09/05 04:17:32;;;;;;;5.30;3.53;;;18.40;63.70;;;;;;4958953;28;20023;-77
2021/09/05 04:19:58;;;;;;;6.60;3.85;;;18.40;63.70;;;;;;4957817;28;20510;-77
2021/09/05 04:22:24;;;;;;;5.80;3.85;;;18.50;63.80;;;;;;4942315;28;20439;-78
2021/09/05 04:24:50;;;;;;;5.75;3.83;;;18.50;63.80;;;;;;4941878;28;20040;-77
2021/09/05 04:27:16;;;;;;;6.38;3.72;;;18.40;63.70;;;;;;4942027;28;20125;-77
2021/09/05 04:29:42;;;;;;;5.15;3.47;;;18.40;63.80;;;;;;4957824;28;20038;-77
2021/09/05 04:32:08;;;;;;;5.32;3.53;;;18.40;63.80;;;;;;4926011;28;20387;-79
2021/09/05 04:34:34;;;;;;;5.60;3.45;;;18.40;63.80;;;;;;4957570;28;20483;-78
2021/09/05 04:36:59;;;;;;;5.05;3.33;;;18.30;63.80;;;;;;4942466;28;20440;-77
2021/09/05 04:39:25;;;;;;;5.57;3.72;;;18.30;63.80;;;;;;4958227;28;20046;-77
2021/09/05 04:41:51;;;;;;;5.72;3.70;;;18.30;63.80;;;;;;4958123;28;20035;-79
2021/09/05 04:44:17;;;;;;;6.45;4.00;;;18.30;63.80;;;;;;4975770;28;20054;-80
2021/09/05 04:46:43;;;;;;;4.97;3.25;;;18.30;63.90;;;;;;4975382;28;20092;-78
2021/09/05 04:49:09;;;;;;;5.32;3.72;;;18.30;63.90;;;;;;4974687;28;20035;-79
2021/09/05 04:51:35;;;;;;;6.03;3.28;;;18.30;63.90;;;;;;4942126;28;20086;-78
2021/09/05 04:54:01;;;;;;;5.60;3.75;;;18.20;63.90;;;;;;4942656;28;20061;-77
2021/09/05 04:56:27;;;;;;;6.03;4.05;;;18.20;63.90;;;;;;4926350;28;20042;-78
2021/09/05 04:58:52;;;;;;;5.88;3.88;;;18.20;63.90;;;;;;4941793;28;20031;-77
2021/09/05 05:01:18;;;;;;;5.82;3.97;;;18.20;63.90;;;;;;4957527;28;20170;-77
2021/09/05 05:03:44;;;;;;;5.55;3.67;;;18.20;64.00;;;;;;4958242;28;20364;-77
2021/09/05 05:06:09;;;;;;;5.47;3.78;;;18.20;63.90;;;;;;4941294;28;20031;-80
2021/09/05 05:08:35;;;;;;;5.97;3.20;;;18.20;63.90;;;;;;4941364;28;20042;-77
2021/09/05 05:11:01;;;;;;;5.68;3.67;;;18.10;64.00;;;;;;4957349;28;20507;-78
2021/09/05 05:13:27;;;;;;;6.07;3.40;;;18.10;64.00;;;;;;4941362;28;20045;-78
2021/09/05 05:15:55;;;;;;;5.70;3.53;;;18.10;64.00;;;;;;4925814;28;20454;-78
2021/09/05 05:18:24;;;;;;;5.20;3.45;;;18.10;64.00;;;;;;4926402;28;20037;-77
2021/09/05 05:20:50;;;;;;;5.63;3.83;;;18.10;64.00;;;;;;4941760;28;20031;-79
2021/09/05 05:23:17;;;;;;;5.07;3.70;;;18.10;64.00;;;;;;4941533;28;20085;-78
2021/09/05 05:25:43;;;;;;;6.38;3.92;;;18.00;64.00;;;;;;4957222;28;20046;-77
2021/09/05 05:28:09;;;;;;;6.43;4.20;;;18.00;64.10;;;;;;4941999;28;20038;-78
2021/09/05 05:30:34;;;;;;;5.55;3.50;;;18.00;64.00;;;;;;4957546;28;20504;-78
2021/09/05 05:33:00;;;;;;;5.43;3.75;;;18.00;64.10;;;;;;4943801;28;20037;-78
2021/09/05 05:35:26;;;;;;;5.65;3.67;;;18.00;64.10;;;;;;4944875;28;20046;-78
2021/09/05 05:37:52;;;;;;;6.68;3.97;;;18.00;64.10;;;;;;4945139;28;20031;-77
2021/09/05 05:40:25;;;;;;;5.32;3.42;;;18.00;64.10;;;;;;4929346;28;20034;-78
2021/09/05 05:42:54;;;;;;;5.65;3.63;;;18.00;64.20;;;;;;4930228;28;20459;-77
2021/09/05 05:45:20;;;;;;;5.70;3.65;;;17.90;64.10;;;;;;4960623;28;20061;-77
2021/09/05 05:47:46;;;;;;;6.05;4.05;;;17.90;64.20;;;;;;4944759;28;20531;-79
2021/09/05 05:50:12;;;;;;;6.20;3.92;;;17.90;64.20;;;;;;4945441;28;20391;-79
2021/09/05 05:52:38;;;;;;;5.70;3.78;;;17.90;64.20;;;;;;4924477;29;20087;-79
2021/09/05 05:55:05;;;;;;;5.85;3.83;;;17.90;64.20;;;;;;4907019;29;20090;-78
2021/09/05 05:57:31;;;;;;;5.13;3.33;;;17.90;64.30;;;;;;4938190;29;20123;-77
2021/09/05 05:59:57;;;;;;;5.90;3.85;;;17.90;64.30;;;;;;4922570;29;20130;-78
2021/09/05 06:02:22;;;;;;;5.10;3.95;;;17.80;64.30;;;;;;4938136;29;20038;-78
2021/09/05 06:04:48;;;;;;;6.07;4.13;;;17.80;64.30;;;;;;4890801;29;20484;-78
2021/09/05 06:07:14;;;;;;;5.75;3.78;;;17.80;64.30;;;;;;4906783;29;20039;-77
2021/09/05 06:09:41;;;;;;;6.10;4.13;;;17.80;64.30;;;;;;4937777;29;20509;-78
2021/09/05 06:12:08;;;;;;;6.18;3.80;;;17.80;64.40;;;;;;4922273;29;20028;-77
2021/09/05 06:14:34;;;;;;;5.45;3.58;;;17.80;64.40;;;;;;4938708;29;20476;-79
2021/09/05 06:17:00;;;;;;;6.68;3.92;;;17.80;64.40;;;;;;4939031;29;20031;-77
2021/09/05 06:19:25;;;;;;;6.20;3.97;;;17.70;64.30;;;;;;4907087;29;20040;-78
2021/09/05 06:21:51;;;;;;;6.10;3.85;;;17.80;64.40;;;;;;4937517;29;20035;-78
2021/09/05 06:24:17;;;;;;;5.90;3.72;;;17.80;64.50;;;;;;4922021;29;20040;-78
2021/09/05 06:26:43;;;;;;;7.07;3.78;;;17.70;64.40;;;;;;4937910;29;20032;-78
2021/09/05 06:29:09;;;;;;;5.03;3.30;;;17.70;65.10;;;;;;4938106;29;20046;-78
2021/09/05 06:31:36;;;;;;;5.95;3.85;;;17.70;64.50;;;;;;4921749;29;20024;-78
2021/09/05 06:34:02;;;;;;;5.80;3.78;;;17.70;64.50;;;;;;4937690;29;20500;-78
2021/09/05 06:36:28;;;;;;;6.18;4.15;;;17.70;64.50;;;;;;4905968;29;20389;-78
2021/09/05 06:38:53;;;;;;;5.60;3.60;;;17.70;64.50;;;;;;4905952;29;20043;-77
2021/09/05 06:41:19;;;;;;;5.97;3.70;;;17.70;64.50;;;;;;4905635;29;20032;-80
2021/09/05 06:43:45;;;;;;;5.30;3.58;;;17.70;64.60;;;;;;4920485;29;20035;-78
2021/09/05 06:46:12;;;;;;;5.78;3.78;;;17.70;65.20;;;;;;4937097;29;20036;-78
2021/09/05 06:48:38;;;;;;;5.30;3.45;;;17.70;64.60;;;;;;4937426;29;20106;-77
2021/09/05 06:51:04;;;;;;;5.60;3.63;;;17.70;64.70;;;;;;4922079;29;20446;-78
2021/09/05 06:53:29;;;;;;;6.40;4.03;;;17.70;64.80;;;;;;4921293;29;20031;-77
2021/09/05 06:55:55;;;;;;;5.18;3.60;;;17.70;64.70;;;;;;4936988;29;20039;-78
2021/09/05 06:58:21;;;;;;;5.68;3.75;;;17.70;64.70;;;;;;4905334;29;20061;-79
2021/09/05 07:00:46;;;;;;;6.13;3.97;;;17.70;64.80;;;;;;4953192;28;20365;-78
2021/09/05 07:03:12;;;;;;;5.55;3.53;;;17.70;64.80;;;;;;4905753;29;20032;-78
2021/09/05 07:05:38;;;;;;;6.35;3.78;;;17.70;64.80;;;;;;4921482;29;20039;-77
2021/09/05 07:08:05;;;;;;;6.30;4.13;;;17.70;64.80;;;;;;4921989;29;20039;-79
2021/09/05 07:10:30;;;;;;;7.13;4.10;;;17.70;64.80;;;;;;4952972;28;20042;-78
2021/09/05 07:12:56;;;;;;;6.50;4.05;;;17.70;64.80;;;;;;4936953;29;20122;-78
2021/09/05 07:15:22;;;;;;;5.43;3.63;;;17.70;65.00;;;;;;4953112;28;20122;-78
2021/09/05 07:17:48;;;;;;;6.53;4.05;;;17.70;64.80;;;;;;4920936;29;20123;-78
2021/09/05 07:20:13;;;;;;;5.63;3.83;;;17.70;64.80;;;;;;4905191;29;20039;-77
2021/09/05 07:22:39;;;;;;;6.07;4.00;;;17.70;64.80;;;;;;4936821;29;20388;-78
2021/09/05 07:25:07;;;;;;;5.60;3.80;;;17.70;64.80;;;;;;4920786;29;20111;-79
2021/09/05 07:27:33;;;;;;;6.82;4.30;;;17.70;64.90;;;;;;4936322;29;20090;-78
2021/09/05 07:29:59;;;;;;;5.30;3.67;;;17.70;64.90;;;;;;4952652;28;20107;-77
2021/09/05 07:32:25;;;;;;;6.47;3.90;;;17.70;64.90;;;;;;4952773;29;20032;-78
2021/09/05 07:34:50;;;;;;;5.82;3.60;;;17.70;64.90;;;;;;4936392;29;20047;-78
2021/09/05 07:37:16;;;;;;;6.38;4.25;;;17.70;64.90;;;;;;4952175;29;20499;-78
2021/09/05 07:39:42;;;;;;;6.32;3.97;;;17.70;64.90;;;;;;4952392;29;20364;-78
2021/09/05 07:42:07;;;;;;;5.60;4.07;;;17.70;64.90;;;;;;4920461;29;20032;-78
2021/09/05 07:44:33;;;;;;;6.55;4.05;;;17.80;65.00;;;;;;4938007;29;20475;-78
2021/09/05 07:46:59;;;;;;;6.47;4.20;;;17.70;64.90;;;;;;4952410;29;20043;-78
2021/09/05 07:49:26;;;;;;;5.88;3.95;;;17.80;65.00;;;;;;4952299;28;20046;-78
2021/09/05 07:51:52;;;;;;;5.90;4.00;;;17.80;65.00;;;;;;4958981;28;20404;-78
2021/09/05 07:54:17;;;;;;;6.07;3.80;;;17.80;65.00;;;;;;4958554;28;20041;-78
2021/09/05 07:56:43;;;;;;;5.80;3.92;;;17.80;65.00;;;;;;4958414;28;20038;-79
2021/09/05 07:59:09;;;;;;;5.95;3.83;;;17.80;65.10;;;;;;4958080;28;20439;-77
2021/09/05 08:01:35;;;;;;;6.60;4.03;;;17.80;65.10;;;;;;4958550;28;20022;-77
2021/09/05 08:04:01;;;;;;;5.45;3.78;;;17.80;65.10;;;;;;4942721;28;20035;-78
2021/09/05 08:06:27;;;;;;;5.70;3.83;;;17.80;65.10;;;;;;4958100;28;20399;-78
2021/09/05 08:08:53;;;;;;;5.57;3.42;;;17.80;65.10;;;;;;4942094;28;20034;-78
2021/09/05 08:11:18;;;;;;;5.78;3.58;;;17.80;65.10;;;;;;4942304;28;20023;-78
2021/09/05 08:13:44;;;;;;;5.32;3.58;;;17.80;65.10;;;;;;4942488;28;20038;-77
2021/09/05 08:16:10;;;;;;;5.55;3.72;;;17.90;65.10;;;;;;4957977;28;20045;-78
2021/09/05 08:18:37;;;;;;;5.50;3.72;;;17.90;65.10;;;;;;4957702;28;20395;-78
2021/09/05 08:21:05;;;;;;;5.28;3.70;;;17.90;65.20;;;;;;4958076;28;20027;-79
2021/09/05 08:23:32;;;;;;;6.15;4.05;;;17.90;65.20;;;;;;4941904;28;20029;-79
2021/09/05 08:25:58;;;;;;;6.75;4.25;;;17.90;65.20;;;;;;4942176;28;20027;-78
2021/09/05 08:28:24;;;;;;;6.10;4.07;;;17.90;65.20;;;;;;4941948;28;20086;-79
2021/09/05 08:30:49;;;;;;;6.78;3.78;;;18.00;65.30;;;;;;4957790;28;20038;-78
2021/09/05 08:33:16;;;;;;;5.68;3.95;;;18.00;65.30;;;;;;4957980;28;20174;-78
2021/09/05 08:35:43;;;;;;;5.80;3.78;;;18.00;65.20;;;;;;4941552;28;20093;-78
2021/09/05 08:38:09;;;;;;;5.60;3.78;;;18.00;65.20;;;;;;4957868;28;20097;-80
2021/09/05 08:40:40;;;;;;;4.97;3.53;;;18.10;65.20;;;;;;4957842;28;20474;-78
2021/09/05 08:43:07;;;;;;;5.65;3.97;;;18.10;65.20;;;;;;4975176;28;20035;-78
2021/09/05 08:45:34;;;;;;;6.60;4.30;;;18.20;65.10;;;;;;4942939;28;20030;-81
2021/09/05 08:48:01;;;;;;;6.15;4.05;;;18.20;65.10;;;;;;4958194;28;20027;-78
2021/09/05 08:50:27;;;;;;;6.00;3.70;;;18.20;65.10;;;;;;4927519;28;20071;-78
2021/09/05 08:52:53;;;;;;;6.03;4.00;;;18.30;65.00;;;;;;4957522;28;20054;-79
2021/09/05 08:55:19;;;;;;;6.13;3.97;;;18.30;65.00;;;;;;4942673;28;20042;-78
2021/09/05 08:57:45;;;;;;;5.28;3.40;;;18.40;64.90;;;;;;4958767;28;20030;-78
2021/09/05 09:00:11;;;;;;;5.82;4.00;;;18.40;64.80;;;;;;4942815;28;20130;-78
2021/09/05 09:02:48;;;;;;;5.38;3.70;;;18.40;64.80;;;;;;4957632;28;20038;-78
2021/09/05 09:05:15;;;;;;;5.68;3.50;;;18.50;64.80;;;;;;4943123;28;20037;-78
2021/09/05 09:07:49;;;;;;;6.05;3.83;;;18.60;64.70;;;;;;4960300;28;20039;-78
2021/09/05 09:10:15;;;;;;;6.53;4.20;;;18.60;64.70;;;;;;4961825;28;20114;-78
2021/09/05 09:12:46;;;;;;;6.40;3.72;;;18.70;64.50;;;;;;4961206;28;20094;-77
2021/09/05 09:15:30;;;;;;;6.28;4.25;;;18.70;64.50;;;;;;4961574;28;20113;-78
2021/09/05 09:18:02;;;;;;;7.10;3.80;;;18.80;64.50;;;;;;4961424;28;20476;-78
2021/09/05 09:20:37;;;;;;;6.00;3.88;;;18.80;64.30;;;;;;4961376;28;20058;-78
2021/09/05 09:23:08;;;;;;;6.75;4.10;;;18.90;64.30;;;;;;4978145;28;20026;-78
2021/09/05 09:25:34;;;;;;;5.57;3.80;;;19.00;64.20;;;;;;4945487;28;20046;-78
2021/09/05 09:28:00;;;;;;;6.13;4.05;;;19.10;64.10;;;;;;4961786;28;20364;-78
2021/09/05 09:30:35;;;;;;;5.93;3.67;;;19.10;64.10;;;;;;4961376;28;20494;-78
2021/09/05 09:33:02;;;;;;;5.90;3.60;;;19.20;64.10;;;;;;4961502;28;20105;-78
2021/09/05 09:35:54;;;;;;;5.93;3.47;;;19.30;63.90;;;;;;4944949;28;20114;-78
2021/09/05 09:38:21;;;;;;;5.60;3.60;;;19.40;64.10;;;;;;4945669;28;20023;-78
2021/09/05 09:40:47;;;;;;;5.68;3.80;;;19.40;63.80;;;;;;4944864;28;20460;-78
2021/09/05 09:43:21;;;;;;;5.57;3.50;;;19.50;63.70;;;;;;4960642;28;20027;-78
2021/09/05 09:45:49;;;;;;;5.80;3.42;;;19.60;63.70;;;;;;4944901;28;20042;-78
2021/09/05 09:48:23;;;;;;;5.90;3.78;;;19.70;63.60;;;;;;4944994;28;20027;-79
2021/09/05 09:50:48;;;;;;;5.90;3.75;;;19.80;63.60;;;;;;4928622;28;20046;-78
2021/09/05 09:53:15;;;;;;;5.72;3.65;;;19.80;63.50;;;;;;4945402;28;20448;-79
2021/09/05 09:55:41;;;;;;;5.95;3.80;;;19.90;63.40;;;;;;4928904;28;20045;-81
2021/09/05 09:58:07;;;;;;;4.90;3.38;;;20.00;63.40;;;;;;4961310;28;20422;-78
2021/09/05 10:00:33;;;;;;;6.80;3.78;;;20.10;63.40;;;;;;4944769;28;20027;-80
2021/09/05 10:03:00;;;;;;;5.47;3.65;;;20.20;63.30;;;;;;4944431;28;20127;-78
2021/09/05 10:05:27;;;;;;;6.30;3.88;;;20.20;63.20;;;;;;4944289;28;20042;-78
2021/09/05 10:07:55;;;;;;;5.03;3.38;;;20.30;63.20;;;;;;4977340;28;20483;-78
2021/09/05 10:10:23;;;;;;;4.95;3.50;;;20.40;63.10;;;;;;4960219;28;20027;-78
2021/09/05 10:12:51;;;;;;;5.30;3.90;;;20.50;63.10;;;;;;4960555;28;20081;-79
2021/09/05 10:15:20;;;;;;;5.97;3.40;;;20.50;63.00;;;;;;4960183;28;20031;-79
2021/09/05 10:17:46;;;;;;;5.30;3.53;;;20.60;62.90;;;;;;4959958;28;20029;-79
2021/09/05 10:20:12;;;;;;;4.95;3.42;;;20.70;62.90;;;;;;4944114;28;20050;-79
2021/09/05 10:22:38;;;;;;;4.85;3.38;;;20.80;62.80;;;;;;4960103;28;20041;-78
2021/09/05 10:25:05;;;;;;;5.85;3.90;;;20.90;62.80;;;;;;4959817;28;20385;-79
2021/09/05 10:27:33;;;;;;;5.22;3.33;;;20.90;62.70;;;;;;4944030;28;20046;-78
2021/09/05 10:30:08;;;;;;;5.57;3.50;;;21.00;62.60;;;;;;4944072;28;20392;-78
2021/09/05 10:32:46;;;;;;;5.43;3.50;;;21.10;62.60;;;;;;4976988;28;20030;-79
2021/09/05 10:35:36;;;;;;;6.32;3.53;;;21.20;62.60;;;;;;4943950;28;20037;-78
2021/09/05 10:38:23;;;;;;;5.00;3.53;;;21.30;62.60;;;;;;4943571;28;20394;-78
2021/09/05 10:41:00;;;;;;;5.05;3.42;;;21.30;62.40;;;;;;4943609;28;20041;-79
2021/09/05 10:43:48;;;;;;;5.78;3.35;;;21.40;62.30;;;;;;4960030;28;20481;-78
2021/09/05 10:46:16;;;;;;;5.13;3.25;;;21.50;62.40;;;;;;4959520;28;20043;-78
2021/09/05 10:48:48;;;;;;;5.15;3.58;;;21.60;62.20;;;;;;4959682;28;20037;-79
2021/09/05 10:51:21;;;;;;;4.43;3.17;;;21.60;62.10;;;;;;4959727;28;20055;-78
2021/09/05 10:53:54;;;;;;;5.18;3.17;;;21.80;62.10;;;;;;4943780;28;20041;-79
2021/09/05 10:56:28;;;;;;;4.90;3.00;;;21.80;62.00;;;;;;4959423;28;20078;-78
2021/09/05 10:58:56;;;;;;;4.72;3.17;;;21.90;62.00;;;;;;4927586;28;20468;-78
2021/09/05 11:01:36;;;;;;;4.95;3.50;;;22.00;62.00;;;;;;4959551;28;20121;-78
2021/09/05 11:04:11;;;;;;;4.88;3.13;;;22.00;61.90;;;;;;4976643;28;20101;-80
2021/09/05 11:06:43;;;;;;;;;;;22.10;62.00;;;;;;4959364;28;20035;-77
2021/09/05 11:09:22;;;;;;;5.20;3.38;;;22.20;61.80;;;;;;4975277;28;19914;-80
2021/09/05 11:12:00;;;;;;;4.47;2.90;;;22.20;61.70;;;;;;4943234;28;20037;-78
2021/09/05 11:14:35;;;;;;;5.45;2.95;;;22.30;61.90;;;;;;4959391;28;20097;-79
2021/09/05 11:17:08;;;;;;;4.63;3.30;;;22.30;61.90;;;;;;4959875;28;20042;-79
2021/09/05 11:19:36;;;;;;;5.57;3.40;;;22.40;61.90;;;;;;4976425;28;20034;-78
2021/09/05 11:22:08;;;;;;;5.03;3.25;;;22.40;61.90;;;;;;4959330;28;20030;-79
2021/09/05 11:24:35;;;;;;;4.90;3.25;;;22.50;61.90;;;;;;4940306;28;20027;-78
2021/09/05 11:27:08;;;;;;;4.22;2.88;;;22.50;61.90;;;;;;4927659;28;20442;-78
2021/09/05 11:29:35;;;;;;;5.28;3.15;;;22.60;61.90;;;;;;4958339;28;20031;-78
2021/09/05 11:32:09;;;;;;;4.78;2.90;;;22.60;61.90;;;;;;4943142;28;20031;-78
2021/09/05 11:34:37;;;;;;;5.07;3.50;;;22.60;61.90;;;;;;4959028;28;20110;-79
2021/09/05 11:37:05;;;;;;;5.20;3.42;;;22.70;62.00;;;;;;4927504;28;20178;-78
2021/09/05 11:39:32;;;;;;;5.07;3.38;;;22.70;62.00;;;;;;4958851;28;20487;-78
2021/09/05 11:42:01;;;;;;;5.72;3.47;;;22.80;62.10;;;;;;4958835;28;20081;-77
2021/09/05 11:44:31;;;;;;;5.80;3.50;;;22.80;62.10;;;;;;4942626;28;20479;-78
2021/09/05 11:47:13;;;;;;;5.28;3.40;;;22.80;62.20;;;;;;4958238;28;20038;-78
2021/09/05 11:49:53;;;;;;;4.47;3.08;;;22.90;62.30;;;;;;4975799;28;20059;-78
2021/09/05 11:52:19;;;;;;;5.40;3.53;;;22.80;62.20;;;;;;4942529;28;20062;-77
2021/09/05 11:54:49;;;;;;;5.32;3.38;;;22.90;62.20;;;;;;4958409;28;20038;-78
2021/09/05 11:57:19;;;;;;;4.90;3.15;;;22.90;62.40;;;;;;4959353;28;20031;-78
2021/09/05 11:59:46;;;;;;;4.63;3.15;;;22.90;62.40;;;;;;4943491;28;20143;-78
2021/09/05 12:02:32;;;;;;;3.88;2.88;;;23.00;62.50;;;;;;4942199;28;20551;-78
2021/09/05 12:04:59;;;;;;;4.97;3.22;;;23.00;62.60;;;;;;4957862;28;20133;-79
2021/09/05 12:07:28;;;;;;;5.57;3.33;;;23.00;62.50;;;;;;4958018;28;20038;-78
2021/09/05 12:10:11;;;;;;;4.18;2.90;;;23.00;62.60;;;;;;4958202;28;20031;-78
2021/09/05 12:12:39;;;;;;;4.35;3.13;;;23.00;62.80;;;;;;4942681;28;20486;-78
2021/09/05 12:15:17;;;;;;;7.05;3.80;;;23.00;62.60;;;;;;4942180;28;20033;-78
2021/09/05 12:17:45;;;;;;;5.03;3.00;;;23.00;62.80;;;;;;4958392;28;20505;-78
2021/09/05 12:20:13;;;;;;;4.63;3.20;;;23.10;62.90;;;;;;4942036;28;20431;-77
2021/09/05 12:22:46;;;;;;;5.07;3.30;;;23.10;62.90;;;;;;4942319;28;20034;-78
2021/09/05 12:25:34;;;;;;;5.30;3.55;;;23.10;63.00;;;;;;4942036;28;20057;-78
2021/09/05 12:28:05;;;;;;;4.80;3.00;;;23.10;63.00;;;;;;4942230;28;20059;-78
2021/09/05 12:30:40;;;;;;;5.28;3.25;;;23.10;62.90;;;;;;4942704;28;20034;-77
2021/09/05 12:33:17;;;;;;;5.80;3.90;;;23.10;62.90;;;;;;4971263;28;20031;-78
2021/09/05 12:35:52;;;;;;;4.82;3.10;;;23.20;62.90;;;;;;4957336;28;20042;-78
2021/09/05 12:38:30;;;;;;;4.53;2.88;;;23.20;63.00;;;;;;4942824;28;20485;-77
2021/09/05 12:41:14;;;;;;;5.40;3.65;;;23.20;63.00;;;;;;4957605;28;20034;-77
2021/09/05 12:43:50;;;;;;;4.35;2.95;;;23.20;63.00;;;;;;4957911;28;20077;-79
2021/09/05 12:46:22;;;;;;;5.40;3.30;;;23.20;62.90;;;;;;4957925;28;20037;-78
2021/09/05 12:48:51;;;;;;;4.68;3.13;;;23.20;62.90;;;;;;4941781;28;20038;-77
2021/09/05 12:51:21;;;;;;;5.78;3.70;;;23.20;62.80;;;;;;4941807;28;20059;-77
2021/09/05 12:54:04;;;;;;;4.43;3.10;;;23.20;62.80;;;;;;4941763;28;20030;-79
2021/09/05 12:56:30;;;;;;;5.20;3.25;;;23.20;62.80;;;;;;4975402;28;20070;-78
2021/09/05 12:58:57;;;;;;;4.53;3.10;;;23.20;62.60;;;;;;4925878;28;20038;-78
2021/09/05 13:01:26;;;;;;;4.78;3.20;;;23.30;62.60;;;;;;4974809;28;20081;-78
2021/09/05 13:03:53;;;;;;;4.88;3.28;;;23.30;62.60;;;;;;4941458;28;20030;-77
2021/09/05 13:06:20;;;;;;;5.38;3.67;;;23.30;62.50;;;;;;4941455;28;20029;-77
2021/09/05 13:08:47;;;;;;;5.03;3.28;;;23.30;62.40;;;;;;4957959;28;20039;-79
2021/09/05 13:11:15;;;;;;;5.00;3.17;;;23.30;62.30;;;;;;4926820;28;20033;-80
2021/09/05 13:13:42;;;;;;;5.88;3.70;;;23.30;62.20;;;;;;4957291;28;20038;-78